sensor_id;sensor_type;location;lat;lon;timestamp;pressure;altitude;pressure_sealevel;temperature;humidity
8039;BME280;4062;49.844;8.120;2023-04-06T00:00:01;99592.09;;;13.60;56.17
8039;BME280;4062;49.844;8.120;2023-04-06T00:02:10;99589.50;;;13.59;56.11
8039;BME280;4062;49.844;8.120;2023-04-06T00:04:14;99583.34;;;13.58;56.17
8039;BME280;4062;49.844;8.120;2023-04-06T00:06:19;99584.19;;;13.59;56.11
8039;BME280;4062;49.844;8.120;2023-04-06T00:08:21;99578.88;;;13.59;56.18
8039;BME280;4062;49.844;8.120;2023-04-06T00:10:24;99578.88;;;13.59;56.06
8039;BME280;4062;49.844;8.120;2023-04-06T00:12:36;99570.91;;;13.59;56.20
8039;BME280;4062;49.844;8.120;2023-04-06T00:14:38;99574.41;;;13.59;56.09
8039;BME280;4062;49.844;8.120;2023-04-06T00:16:44;99572.72;;;13.58;56.17
8039;BME280;4062;49.844;8.120;2023-04-06T00:18:46;99572.72;;;13.58;56.23
8039;BME280;4062;49.844;8.120;2023-04-06T00:20:47;99567.41;;;13.58;56.13
8039;BME280;4062;49.844;8.120;2023-04-06T00:22:49;99566.47;;;13.59;56.12
8039;BME280;4062;49.844;8.120;2023-04-06T00:24:50;99569.09;;;13.59;56.09
8039;BME280;4062;49.844;8.120;2023-04-06T00:26:52;99568.25;;;13.59;56.24
8039;BME280;4062;49.844;8.120;2023-04-06T00:28:56;99571.75;;;13.59;56.19
8039;BME280;4062;49.844;8.120;2023-04-06T00:30:59;99563.81;;;13.59;56.09
8039;BME280;4062;49.844;8.120;2023-04-06T00:33:01;99560.28;;;13.59;56.16
8039;BME280;4062;49.844;8.120;2023-04-06T00:35:06;99559.44;;;13.58;56.14
8039;BME280;4062;49.844;8.120;2023-04-06T00:37:13;99557.63;;;13.59;56.26
8039;BME280;4062;49.844;8.120;2023-04-06T00:39:14;99554.97;;;13.59;56.22
8039;BME280;4062;49.844;8.120;2023-04-06T00:41:17;99554.13;;;13.58;56.16
8039;BME280;4062;49.844;8.120;2023-04-06T00:43:21;99559.44;;;13.58;56.19
8039;BME280;4062;49.844;8.120;2023-04-06T00:45:41;99556.78;;;13.58;56.05
8039;BME280;4062;49.844;8.120;2023-04-06T00:47:43;99550.59;;;13.58;56.05
8039;BME280;4062;49.844;8.120;2023-04-06T00:49:49;99551.47;;;13.58;56.20
8039;BME280;4062;49.844;8.120;2023-04-06T00:51:52;99547.94;;;13.58;56.07
8039;BME280;4062;49.844;8.120;2023-04-06T00:53:56;99540.84;;;13.58;56.16
8039;BME280;4062;49.844;8.120;2023-04-06T00:56:01;99536.47;;;13.57;56.21
8039;BME280;4062;49.844;8.120;2023-04-06T00:58:24;99544.44;;;13.57;56.06
8039;BME280;4062;49.844;8.120;2023-04-06T01:00:37;99539.97;;;13.58;56.13
8039;BME280;4062;49.844;8.120;2023-04-06T01:02:41;99538.19;;;13.58;56.24
8039;BME280;4062;49.844;8.120;2023-04-06T01:04:46;99537.31;;;13.58;56.26
8039;BME280;4062;49.844;8.120;2023-04-06T01:07:00;99536.47;;;13.57;56.14
8039;BME280;4062;49.844;8.120;2023-04-06T01:09:10;99534.72;;;13.56;56.22
8039;BME280;4062;49.844;8.120;2023-04-06T01:11:11;99533.81;;;13.57;56.19
8039;BME280;4062;49.844;8.120;2023-04-06T01:13:13;99530.28;;;13.57;56.20
8039;BME280;4062;49.844;8.120;2023-04-06T01:15:31;99533.81;;;13.57;56.11
8039;BME280;4062;49.844;8.120;2023-04-06T01:17:37;99537.31;;;13.58;56.30
8039;BME280;4062;49.844;8.120;2023-04-06T01:19:45;99529.34;;;13.58;56.18
8039;BME280;4062;49.844;8.120;2023-04-06T01:21:59;99536.47;;;13.57;56.28
8039;BME280;4062;49.844;8.120;2023-04-06T01:24:17;99537.31;;;13.58;56.12
8039;BME280;4062;49.844;8.120;2023-04-06T01:26:36;99534.72;;;13.56;56.18
8039;BME280;4062;49.844;8.120;2023-04-06T01:28:42;99538.22;;;13.57;56.22
8039;BME280;4062;49.844;8.120;2023-04-06T01:31:05;99535.56;;;13.57;56.24
8039;BME280;4062;49.844;8.120;2023-04-06T01:33:28;99525.84;;;13.57;56.01
8039;BME280;4062;49.844;8.120;2023-04-06T01:35:48;99521.44;;;13.56;56.22
8039;BME280;4062;49.844;8.120;2023-04-06T01:37:55;99527.63;;;13.57;56.25
8039;BME280;4062;49.844;8.120;2023-04-06T01:40:04;99524.97;;;13.57;56.24
8039;BME280;4062;49.844;8.120;2023-04-06T01:42:19;99526.75;;;13.56;56.20
8039;BME280;4062;49.844;8.120;2023-04-06T01:44:22;99522.31;;;13.57;56.17
8039;BME280;4062;49.844;8.120;2023-04-06T01:46:33;99521.44;;;13.56;56.07
8039;BME280;4062;49.844;8.120;2023-04-06T01:48:36;99521.44;;;13.56;56.13
8039;BME280;4062;49.844;8.120;2023-04-06T01:50:47;99515.25;;;13.56;56.00
8039;BME280;4062;49.844;8.120;2023-04-06T01:52:55;99517.91;;;13.56;56.11
8039;BME280;4062;49.844;8.120;2023-04-06T01:54:58;99513.50;;;13.56;56.20
8039;BME280;4062;49.844;8.120;2023-04-06T01:57:29;99510.84;;;13.56;56.12
8039;BME280;4062;49.844;8.120;2023-04-06T01:59:38;99517.06;;;13.55;56.22
8039;BME280;4062;49.844;8.120;2023-04-06T02:01:46;99514.34;;;13.57;56.20
8039;BME280;4062;49.844;8.120;2023-04-06T02:03:51;99509.09;;;13.55;56.12
8039;BME280;4062;49.844;8.120;2023-04-06T02:06:20;99509.94;;;13.56;56.19
8039;BME280;4062;49.844;8.120;2023-04-06T02:08:36;99502.88;;;13.56;56.20
8039;BME280;4062;49.844;8.120;2023-04-06T02:10:38;99504.63;;;13.56;56.09
8039;BME280;4062;49.844;8.120;2023-04-06T02:12:58;99509.94;;;13.56;56.28
8039;BME280;4062;49.844;8.120;2023-04-06T02:15:01;99509.09;;;13.55;56.15
8039;BME280;4062;49.844;8.120;2023-04-06T02:17:04;99509.09;;;13.55;56.13
8039;BME280;4062;49.844;8.120;2023-04-06T02:19:06;99506.44;;;13.55;56.27
8039;BME280;4062;49.844;8.120;2023-04-06T02:21:07;99506.44;;;13.55;56.21
8039;BME280;4062;49.844;8.120;2023-04-06T02:23:09;99508.22;;;13.55;56.34
8039;BME280;4062;49.844;8.120;2023-04-06T02:25:10;99501.97;;;13.56;56.15
8039;BME280;4062;49.844;8.120;2023-04-06T02:27:12;99497.59;;;13.55;56.25
8039;BME280;4062;49.844;8.120;2023-04-06T02:29:13;99503.78;;;13.55;56.14
8039;BME280;4062;49.844;8.120;2023-04-06T02:31:15;99502.91;;;13.55;56.33
8039;BME280;4062;49.844;8.120;2023-04-06T02:33:17;99501.13;;;13.55;56.13
8039;BME280;4062;49.844;8.120;2023-04-06T02:35:25;99503.78;;;13.55;56.26
8039;BME280;4062;49.844;8.120;2023-04-06T02:37:29;99501.13;;;13.55;56.28
8039;BME280;4062;49.844;8.120;2023-04-06T02:39:33;99496.69;;;13.56;56.21
8039;BME280;4062;49.844;8.120;2023-04-06T02:41:36;99497.59;;;13.55;56.18
8039;BME280;4062;49.844;8.120;2023-04-06T02:43:39;99494.94;;;13.55;56.14
8039;BME280;4062;49.844;8.120;2023-04-06T02:45:50;99490.56;;;13.54;56.22
8039;BME280;4062;49.844;8.120;2023-04-06T02:47:53;99491.44;;;13.54;56.22
8039;BME280;4062;49.844;8.120;2023-04-06T02:49:55;99497.59;;;13.55;56.19
8039;BME280;4062;49.844;8.120;2023-04-06T02:51:57;99483.47;;;13.54;56.21
8039;BME280;4062;49.844;8.120;2023-04-06T02:54:05;99491.44;;;13.54;56.13
8039;BME280;4062;49.844;8.120;2023-04-06T02:56:06;99488.78;;;13.54;56.24
8039;BME280;4062;49.844;8.120;2023-04-06T02:58:22;99486.97;;;13.55;56.16
8039;BME280;4062;49.844;8.120;2023-04-06T03:00:30;99489.63;;;13.55;56.07
8039;BME280;4062;49.844;8.120;2023-04-06T03:02:32;99480.81;;;13.54;56.19
8039;BME280;4062;49.844;8.120;2023-04-06T03:04:41;99488.78;;;13.54;56.19
8039;BME280;4062;49.844;8.120;2023-04-06T03:06:53;99486.13;;;13.54;56.28
8039;BME280;4062;49.844;8.120;2023-04-06T03:09:07;99487.91;;;13.54;56.27
8039;BME280;4062;49.844;8.120;2023-04-06T03:11:08;99489.63;;;13.55;56.23
8039;BME280;4062;49.844;8.120;2023-04-06T03:13:15;99482.63;;;13.54;56.21
8039;BME280;4062;49.844;8.120;2023-04-06T03:15:21;99489.63;;;13.55;56.20
8039;BME280;4062;49.844;8.120;2023-04-06T03:17:26;99490.56;;;13.54;56.28
8039;BME280;4062;49.844;8.120;2023-04-06T03:19:34;99483.53;;;13.53;56.22
8039;BME280;4062;49.844;8.120;2023-04-06T03:21:37;99496.75;;;13.54;56.29
8039;BME280;4062;49.844;8.120;2023-04-06T03:23:50;99495.00;;;13.53;56.16
8039;BME280;4062;49.844;8.120;2023-04-06T03:25:54;99493.22;;;13.54;56.27
8039;BME280;4062;49.844;8.120;2023-04-06T03:27:56;99489.69;;;13.53;56.35
8039;BME280;4062;49.844;8.120;2023-04-06T03:29:58;99495.88;;;13.54;56.14
8039;BME280;4062;49.844;8.120;2023-04-06T03:32:06;99493.22;;;13.54;56.10
8039;BME280;4062;49.844;8.120;2023-04-06T03:34:11;99487.91;;;13.54;56.20
8039;BME280;4062;49.844;8.120;2023-04-06T03:36:13;99490.56;;;13.54;56.26
8039;BME280;4062;49.844;8.120;2023-04-06T03:38:17;99495.00;;;13.53;56.17
8039;BME280;4062;49.844;8.120;2023-04-06T03:40:19;99487.03;;;13.53;56.16
8039;BME280;4062;49.844;8.120;2023-04-06T03:42:21;99483.53;;;13.53;56.33
8039;BME280;4062;49.844;8.120;2023-04-06T03:44:31;99491.50;;;13.53;56.18
8039;BME280;4062;49.844;8.120;2023-04-06T03:46:33;99494.16;;;13.53;56.18
8039;BME280;4062;49.844;8.120;2023-04-06T03:48:40;99495.88;;;13.54;56.22
8039;BME280;4062;49.844;8.120;2023-04-06T03:50:44;99497.66;;;13.53;56.14
8039;BME280;4062;49.844;8.120;2023-04-06T03:52:45;99502.97;;;13.53;56.17
8039;BME280;4062;49.844;8.120;2023-04-06T03:54:47;99499.47;;;13.53;56.18
8039;BME280;4062;49.844;8.120;2023-04-06T03:56:48;99500.31;;;13.53;56.17
8039;BME280;4062;49.844;8.120;2023-04-06T03:58:49;99495.91;;;13.52;56.25
8039;BME280;4062;49.844;8.120;2023-04-06T04:00:55;99503.88;;;13.52;56.29
8039;BME280;4062;49.844;8.120;2023-04-06T04:02:56;99508.28;;;13.53;56.31
8039;BME280;4062;49.844;8.120;2023-04-06T04:04:58;99498.56;;;13.52;56.22
8039;BME280;4062;49.844;8.120;2023-04-06T04:06:59;99504.75;;;13.53;56.25
8039;BME280;4062;49.844;8.120;2023-04-06T04:09:01;99510.06;;;13.53;56.16
8039;BME280;4062;49.844;8.120;2023-04-06T04:11:03;99511.81;;;13.54;56.30
8039;BME280;4062;49.844;8.120;2023-04-06T04:13:07;99508.34;;;13.52;56.24
8039;BME280;4062;49.844;8.120;2023-04-06T04:15:09;99511.84;;;13.52;56.21
8039;BME280;4062;49.844;8.120;2023-04-06T04:17:11;99512.72;;;13.53;56.18
8039;BME280;4062;49.844;8.120;2023-04-06T04:19:12;99519.81;;;13.52;56.30
8039;BME280;4062;49.844;8.120;2023-04-06T04:21:13;99526.00;;;13.53;56.16
8039;BME280;4062;49.844;8.120;2023-04-06T04:23:15;99513.66;;;13.52;56.21
8039;BME280;4062;49.844;8.120;2023-04-06T04:25:16;99508.34;;;13.52;56.23
8039;BME280;4062;49.844;8.120;2023-04-06T04:27:22;99522.47;;;13.52;56.27
8039;BME280;4062;49.844;8.120;2023-04-06T04:29:25;99517.16;;;13.52;56.25
8039;BME280;4062;49.844;8.120;2023-04-06T04:31:28;99518.97;;;13.52;56.10
8039;BME280;4062;49.844;8.120;2023-04-06T04:33:34;99518.97;;;13.52;56.23
8039;BME280;4062;49.844;8.120;2023-04-06T04:35:42;99521.59;;;13.52;56.32
8039;BME280;4062;49.844;8.120;2023-04-06T04:37:45;99526.00;;;13.53;56.23
8039;BME280;4062;49.844;8.120;2023-04-06T04:39:47;99526.91;;;13.52;56.28
8039;BME280;4062;49.844;8.120;2023-04-06T04:41:48;99524.25;;;13.52;56.23
8039;BME280;4062;49.844;8.120;2023-04-06T04:43:50;99523.38;;;13.51;56.25
8039;BME280;4062;49.844;8.120;2023-04-06T04:45:58;99525.19;;;13.51;56.25
8039;BME280;4062;49.844;8.120;2023-04-06T04:48:10;99526.00;;;13.53;56.14
8039;BME280;4062;49.844;8.120;2023-04-06T04:50:26;99522.47;;;13.52;56.42
8039;BME280;4062;49.844;8.120;2023-04-06T04:52:34;99518.97;;;13.52;56.28
8039;BME280;4062;49.844;8.120;2023-04-06T04:54:49;99526.91;;;13.52;56.26
8039;BME280;4062;49.844;8.120;2023-04-06T04:56:59;99526.91;;;13.52;56.32
8039;BME280;4062;49.844;8.120;2023-04-06T04:59:20;99523.38;;;13.51;56.18
8039;BME280;4062;49.844;8.120;2023-04-06T05:01:29;99529.56;;;13.52;56.15
8039;BME280;4062;49.844;8.120;2023-04-06T05:03:33;99530.44;;;13.52;56.10
8039;BME280;4062;49.844;8.120;2023-04-06T05:05:40;99533.09;;;13.52;56.22
8039;BME280;4062;49.844;8.120;2023-04-06T05:07:42;99530.44;;;13.52;56.29
8039;BME280;4062;49.844;8.120;2023-04-06T05:09:49;99534.00;;;13.51;56.09
8039;BME280;4062;49.844;8.120;2023-04-06T05:11:52;99536.63;;;13.53;56.24
8039;BME280;4062;49.844;8.120;2023-04-06T05:13:54;99523.38;;;13.51;56.19
8039;BME280;4062;49.844;8.120;2023-04-06T05:15:58;99532.22;;;13.52;56.30
8039;BME280;4062;49.844;8.120;2023-04-06T05:18:07;99539.31;;;13.51;56.22
8039;BME280;4062;49.844;8.120;2023-04-06T05:20:10;99530.50;;;13.51;56.29
8039;BME280;4062;49.844;8.120;2023-04-06T05:22:19;99526.03;;;13.51;56.33
8039;BME280;4062;49.844;8.120;2023-04-06T05:24:26;99531.34;;;13.51;56.09
8039;BME280;4062;49.844;8.120;2023-04-06T05:26:29;99535.75;;;13.52;56.18
8039;BME280;4062;49.844;8.120;2023-04-06T05:28:40;99529.56;;;13.52;56.16
8039;BME280;4062;49.844;8.120;2023-04-06T05:30:45;99532.22;;;13.52;56.19
8039;BME280;4062;49.844;8.120;2023-04-06T05:32:48;99535.78;;;13.51;56.19
8039;BME280;4062;49.844;8.120;2023-04-06T05:34:50;99542.84;;;13.52;56.26
8039;BME280;4062;49.844;8.120;2023-04-06T05:36:51;99531.34;;;13.51;56.23
8039;BME280;4062;49.844;8.120;2023-04-06T05:38:56;99535.78;;;13.51;56.16
8039;BME280;4062;49.844;8.120;2023-04-06T05:41:11;99548.16;;;13.52;56.33
8039;BME280;4062;49.844;8.120;2023-04-06T05:43:17;99545.50;;;13.52;56.30
8039;BME280;4062;49.844;8.120;2023-04-06T05:45:25;99550.81;;;13.52;56.17
8039;BME280;4062;49.844;8.120;2023-04-06T05:47:30;99548.16;;;13.52;56.24
8039;BME280;4062;49.844;8.120;2023-04-06T05:49:45;99550.81;;;13.52;56.15
8039;BME280;4062;49.844;8.120;2023-04-06T05:51:54;99545.50;;;13.52;56.18
8039;BME280;4062;49.844;8.120;2023-04-06T05:53:56;99538.38;;;13.52;56.31
8039;BME280;4062;49.844;8.120;2023-04-06T05:56:02;99544.63;;;13.51;56.14
8039;BME280;4062;49.844;8.120;2023-04-06T05:58:04;99543.75;;;13.51;56.21
8039;BME280;4062;49.844;8.120;2023-04-06T06:00:07;99541.97;;;13.51;56.30
8039;BME280;4062;49.844;8.120;2023-04-06T06:02:25;99542.88;;;13.50;56.17
8039;BME280;4062;49.844;8.120;2023-04-06T06:04:29;99544.63;;;13.51;56.38
8039;BME280;4062;49.844;8.120;2023-04-06T06:06:33;99536.72;;;13.50;56.15
8039;BME280;4062;49.844;8.120;2023-04-06T06:08:51;99545.50;;;13.52;56.16
8039;BME280;4062;49.844;8.120;2023-04-06T06:10:54;99543.75;;;13.51;56.22
8039;BME280;4062;49.844;8.120;2023-04-06T06:12:58;99543.75;;;13.51;56.28
8039;BME280;4062;49.844;8.120;2023-04-06T06:14:59;99545.53;;;13.50;56.28
8039;BME280;4062;49.844;8.120;2023-04-06T06:17:06;99548.19;;;13.50;56.21
8039;BME280;4062;49.844;8.120;2023-04-06T06:19:09;99544.63;;;13.51;56.26
8039;BME280;4062;49.844;8.120;2023-04-06T06:21:11;99549.94;;;13.51;56.32
8039;BME280;4062;49.844;8.120;2023-04-06T06:23:14;99544.63;;;13.51;56.22
8039;BME280;4062;49.844;8.120;2023-04-06T06:25:16;99544.63;;;13.51;56.16
8039;BME280;4062;49.844;8.120;2023-04-06T06:27:17;99542.03;;;13.50;56.18
8039;BME280;4062;49.844;8.120;2023-04-06T06:29:19;99549.06;;;13.51;56.36
8039;BME280;4062;49.844;8.120;2023-04-06T06:31:20;99551.72;;;13.51;56.22
8039;BME280;4062;49.844;8.120;2023-04-06T06:33:26;99543.75;;;13.51;56.17
8039;BME280;4062;49.844;8.120;2023-04-06T06:35:29;99546.41;;;13.51;56.28
8039;BME280;4062;49.844;8.120;2023-04-06T06:37:31;99547.28;;;13.51;56.15
8039;BME280;4062;49.844;8.120;2023-04-06T06:39:35;99556.13;;;13.52;56.02
8039;BME280;4062;49.844;8.120;2023-04-06T06:41:36;99550.84;;;13.50;56.25
8039;BME280;4062;49.844;8.120;2023-04-06T06:43:39;99560.53;;;13.51;56.10
8039;BME280;4062;49.844;8.120;2023-04-06T06:45:46;99554.38;;;13.51;56.24
8039;BME280;4062;49.844;8.120;2023-04-06T06:47:48;99551.72;;;13.51;56.17
8039;BME280;4062;49.844;8.120;2023-04-06T06:49:50;99551.72;;;13.51;56.29
8039;BME280;4062;49.844;8.120;2023-04-06T06:51:51;99551.72;;;13.51;56.32
8039;BME280;4062;49.844;8.120;2023-04-06T06:53:53;99556.13;;;13.52;56.18
8039;BME280;4062;49.844;8.120;2023-04-06T06:56:02;99555.22;;;13.51;56.21
8039;BME280;4062;49.844;8.120;2023-04-06T06:58:05;99554.38;;;13.51;56.35
8039;BME280;4062;49.844;8.120;2023-04-06T07:00:08;99552.56;;;13.51;56.22
8039;BME280;4062;49.844;8.120;2023-04-06T07:02:10;99556.13;;;13.52;56.21
8039;BME280;4062;49.844;8.120;2023-04-06T07:04:11;99557.88;;;13.51;56.28
8039;BME280;4062;49.844;8.120;2023-04-06T07:06:12;99554.38;;;13.51;56.15
8039;BME280;4062;49.844;8.120;2023-04-06T07:08:15;99552.56;;;13.51;56.05
8039;BME280;4062;49.844;8.120;2023-04-06T07:10:17;99549.94;;;13.51;56.24
8039;BME280;4062;49.844;8.120;2023-04-06T07:12:18;99549.06;;;13.51;56.11
8039;BME280;4062;49.844;8.120;2023-04-06T07:14:20;99550.84;;;13.50;56.13
8039;BME280;4062;49.844;8.120;2023-04-06T07:16:22;99551.72;;;13.51;56.13
8039;BME280;4062;49.844;8.120;2023-04-06T07:18:31;99560.53;;;13.51;56.24
8039;BME280;4062;49.844;8.120;2023-04-06T07:20:33;99551.72;;;13.51;56.22
8039;BME280;4062;49.844;8.120;2023-04-06T07:22:35;99554.38;;;13.51;56.15
8039;BME280;4062;49.844;8.120;2023-04-06T07:24:37;99556.16;;;13.50;56.16
8039;BME280;4062;49.844;8.120;2023-04-06T07:26:42;99557.03;;;13.51;56.23
8039;BME280;4062;49.844;8.120;2023-04-06T07:28:44;99554.38;;;13.51;56.17
8039;BME280;4062;49.844;8.120;2023-04-06T07:30:47;99557.03;;;13.51;56.21
8039;BME280;4062;49.844;8.120;2023-04-06T07:32:49;99557.03;;;13.51;56.28
8039;BME280;4062;49.844;8.120;2023-04-06T07:34:51;99560.53;;;13.51;56.17
8039;BME280;4062;49.844;8.120;2023-04-06T07:36:53;99560.53;;;13.51;56.19
8039;BME280;4062;49.844;8.120;2023-04-06T07:38:55;99557.03;;;13.51;55.90
8039;BME280;4062;49.844;8.120;2023-04-06T07:40:58;99559.63;;;13.52;56.09
8039;BME280;4062;49.844;8.120;2023-04-06T07:42:59;99556.97;;;13.52;56.04
8039;BME280;4062;49.844;8.120;2023-04-06T07:45:00;99548.16;;;13.52;56.09
8039;BME280;4062;49.844;8.120;2023-04-06T07:47:02;99552.53;;;13.53;56.09
8039;BME280;4062;49.844;8.120;2023-04-06T07:49:03;99553.41;;;13.53;56.03
8039;BME280;4062;49.844;8.120;2023-04-06T07:51:07;99553.41;;;13.53;56.09
8039;BME280;4062;49.844;8.120;2023-04-06T07:53:13;99549.84;;;13.54;56.19
8039;BME280;4062;49.844;8.120;2023-04-06T07:55:15;99549.84;;;13.54;55.97
8039;BME280;4062;49.844;8.120;2023-04-06T07:57:16;99553.34;;;13.55;55.95
8039;BME280;4062;49.844;8.120;2023-04-06T07:59:18;99548.97;;;13.54;56.04
8039;BME280;4062;49.844;8.120;2023-04-06T08:01:19;99548.91;;;13.55;56.08
8039;BME280;4062;49.844;8.120;2023-04-06T08:03:20;99546.25;;;13.55;55.92
8039;BME280;4062;49.844;8.120;2023-04-06T08:05:26;99545.34;;;13.56;55.92
8039;BME280;4062;49.844;8.120;2023-04-06T08:07:27;99546.19;;;13.57;56.05
8039;BME280;4062;49.844;8.120;2023-04-06T08:09:28;99541.78;;;13.57;55.96
8039;BME280;4062;49.844;8.120;2023-04-06T08:11:30;99545.28;;;13.58;55.93
8039;BME280;4062;49.844;8.120;2023-04-06T08:13:31;99551.47;;;13.58;55.95
8039;BME280;4062;49.844;8.120;2023-04-06T08:15:32;99553.19;;;13.59;55.78
8039;BME280;4062;49.844;8.120;2023-04-06T08:17:33;99554.06;;;13.60;55.79
8039;BME280;4062;49.844;8.120;2023-04-06T08:19:37;99557.56;;;13.60;55.82
8039;BME280;4062;49.844;8.120;2023-04-06T08:21:38;99555.81;;;13.61;55.90
8039;BME280;4062;49.844;8.120;2023-04-06T08:23:41;99551.34;;;13.62;55.83
8039;BME280;4062;49.844;8.120;2023-04-06T08:25:42;99553.97;;;13.63;55.74
8039;BME280;4062;49.844;8.120;2023-04-06T08:27:44;99558.41;;;13.63;55.97
8039;BME280;4062;49.844;8.120;2023-04-06T08:29:45;99552.22;;;13.62;55.83
8039;BME280;4062;49.844;8.120;2023-04-06T08:31:46;99558.34;;;13.64;55.71
8039;BME280;4062;49.844;8.120;2023-04-06T08:33:48;99553.91;;;13.65;55.82
8039;BME280;4062;49.844;8.120;2023-04-06T08:35:49;99555.69;;;13.64;55.62
8039;BME280;4062;49.844;8.120;2023-04-06T08:37:50;99548.59;;;13.65;55.82
8039;BME280;4062;49.844;8.120;2023-04-06T08:39:52;99554.75;;;13.65;55.73
8039;BME280;4062;49.844;8.120;2023-04-06T08:41:53;99553.00;;;13.66;55.87
8039;BME280;4062;49.844;8.120;2023-04-06T08:43:59;99559.16;;;13.66;55.76
8039;BME280;4062;49.844;8.120;2023-04-06T08:46:01;99547.69;;;13.66;55.75
8039;BME280;4062;49.844;8.120;2023-04-06T08:48:03;99555.59;;;13.67;55.76
8039;BME280;4062;49.844;8.120;2023-04-06T08:50:09;99551.16;;;13.68;55.70
8039;BME280;4062;49.844;8.120;2023-04-06T08:52:12;99552.00;;;13.68;55.80
8039;BME280;4062;49.844;8.120;2023-04-06T08:54:14;99562.63;;;13.68;55.73
8039;BME280;4062;49.844;8.120;2023-04-06T08:56:15;99553.75;;;13.69;55.72
8039;BME280;4062;49.844;8.120;2023-04-06T08:58:17;99553.75;;;13.69;55.68
8039;BME280;4062;49.844;8.120;2023-04-06T09:00:18;99553.75;;;13.69;55.79
8039;BME280;4062;49.844;8.120;2023-04-06T09:02:22;99551.94;;;13.70;55.69
8039;BME280;4062;49.844;8.120;2023-04-06T09:04:23;99553.69;;;13.71;55.88
8039;BME280;4062;49.844;8.120;2023-04-06T09:06:25;99546.59;;;13.71;55.81
8039;BME280;4062;49.844;8.120;2023-04-06T09:08:33;99550.13;;;13.72;55.80
8039;BME280;4062;49.844;8.120;2023-04-06T09:10:34;99549.19;;;13.73;55.86
8039;BME280;4062;49.844;8.120;2023-04-06T09:12:36;99550.06;;;13.73;55.72
8039;BME280;4062;49.844;8.120;2023-04-06T09:14:38;99543.81;;;13.74;55.75
8039;BME280;4062;49.844;8.120;2023-04-06T09:16:40;99549.13;;;13.74;55.72
8039;BME280;4062;49.844;8.120;2023-04-06T09:18:42;99548.22;;;13.75;55.87
8039;BME280;4062;49.844;8.120;2023-04-06T09:20:44;99550.03;;;13.75;55.85
8039;BME280;4062;49.844;8.120;2023-04-06T09:22:45;99549.09;;;13.76;55.73
8039;BME280;4062;49.844;8.120;2023-04-06T09:24:53;99548.16;;;13.77;55.64
8039;BME280;4062;49.844;8.120;2023-04-06T09:26:55;99549.03;;;13.78;55.70
8039;BME280;4062;49.844;8.120;2023-04-06T09:28:58;99541.94;;;13.78;55.74
8039;BME280;4062;49.844;8.120;2023-04-06T09:31:00;99541.91;;;13.80;55.77
8039;BME280;4062;49.844;8.120;2023-04-06T09:33:01;99539.25;;;13.80;55.67
8039;BME280;4062;49.844;8.120;2023-04-06T09:35:07;99533.94;;;13.80;55.63
8039;BME280;4062;49.844;8.120;2023-04-06T09:37:15;99540.09;;;13.80;55.68
8039;BME280;4062;49.844;8.120;2023-04-06T09:39:21;99538.31;;;13.81;55.73
8039;BME280;4062;49.844;8.120;2023-04-06T09:41:28;99535.66;;;13.81;55.67
8039;BME280;4062;49.844;8.120;2023-04-06T09:43:30;99531.13;;;13.83;55.66
8039;BME280;4062;49.844;8.120;2023-04-06T09:45:31;99538.19;;;13.84;55.67
8039;BME280;4062;49.844;8.120;2023-04-06T09:47:34;99538.19;;;13.84;55.66
8039;BME280;4062;49.844;8.120;2023-04-06T09:49:36;99529.38;;;13.83;55.54
8039;BME280;4062;49.844;8.120;2023-04-06T09:51:40;99535.53;;;13.84;55.58
8039;BME280;4062;49.844;8.120;2023-04-06T09:53:42;99547.03;;;13.84;55.63
8039;BME280;4062;49.844;8.120;2023-04-06T09:55:46;99539.94;;;13.85;55.54
8039;BME280;4062;49.844;8.120;2023-04-06T09:58:05;99532.84;;;13.85;55.60
8039;BME280;4062;49.844;8.120;2023-04-06T10:00:08;99534.63;;;13.85;55.62
8039;BME280;4062;49.844;8.120;2023-04-06T10:02:30;99524.06;;;13.83;55.66
8039;BME280;4062;49.844;8.120;2023-04-06T10:04:37;99531.97;;;13.85;55.58
8039;BME280;4062;49.844;8.120;2023-04-06T10:06:41;99531.09;;;13.84;55.77
8039;BME280;4062;49.844;8.120;2023-04-06T10:08:43;99528.50;;;13.83;55.68
8039;BME280;4062;49.844;8.120;2023-04-06T10:10:46;99532.03;;;13.83;55.66
8039;BME280;4062;49.844;8.120;2023-04-06T10:12:48;99524.09;;;13.82;55.67
8039;BME280;4062;49.844;8.120;2023-04-06T10:14:51;99519.66;;;13.82;55.63
8039;BME280;4062;49.844;8.120;2023-04-06T10:16:52;99521.44;;;13.82;55.71
8039;BME280;4062;49.844;8.120;2023-04-06T10:18:59;99522.31;;;13.82;55.53
8039;BME280;4062;49.844;8.120;2023-04-06T10:21:16;99516.13;;;13.82;55.47
8039;BME280;4062;49.844;8.120;2023-04-06T10:23:40;99515.22;;;13.83;55.53
8039;BME280;4062;49.844;8.120;2023-04-06T10:25:56;99514.41;;;13.81;55.49
8039;BME280;4062;49.844;8.120;2023-04-06T10:28:15;99514.41;;;13.81;55.66
8039;BME280;4062;49.844;8.120;2023-04-06T10:30:20;99511.75;;;13.81;55.53
8039;BME280;4062;49.844;8.120;2023-04-06T10:32:32;99513.47;;;13.82;55.62
8039;BME280;4062;49.844;8.120;2023-04-06T10:34:36;99515.34;;;13.80;55.58
8039;BME280;4062;49.844;8.120;2023-04-06T10:36:38;99505.56;;;13.80;55.57
8039;BME280;4062;49.844;8.120;2023-04-06T10:38:40;99510.03;;;13.80;55.53
8039;BME280;4062;49.844;8.120;2023-04-06T10:40:42;99507.38;;;13.80;55.49
8039;BME280;4062;49.844;8.120;2023-04-06T10:42:44;99503.81;;;13.81;55.59
8039;BME280;4062;49.844;8.120;2023-04-06T10:44:45;99510.88;;;13.80;55.61
8039;BME280;4062;49.844;8.120;2023-04-06T10:46:58;99502.06;;;13.80;55.54
8039;BME280;4062;49.844;8.120;2023-04-06T10:49:12;99510.88;;;13.80;55.61
8039;BME280;4062;49.844;8.120;2023-04-06T10:51:15;99501.19;;;13.79;55.55
8039;BME280;4062;49.844;8.120;2023-04-06T10:53:23;99512.69;;;13.80;55.53
8039;BME280;4062;49.844;8.120;2023-04-06T10:55:26;99504.72;;;13.80;55.57
8039;BME280;4062;49.844;8.120;2023-04-06T10:57:29;99497.66;;;13.79;55.57
8039;BME280;4062;49.844;8.120;2023-04-06T10:59:31;99496.78;;;13.78;55.63
8039;BME280;4062;49.844;8.120;2023-04-06T11:01:33;99497.66;;;13.79;55.61
8039;BME280;4062;49.844;8.120;2023-04-06T11:03:46;99491.47;;;13.78;55.47
8039;BME280;4062;49.844;8.120;2023-04-06T11:05:49;99492.34;;;13.79;55.54
8039;BME280;4062;49.844;8.120;2023-04-06T11:07:50;99486.16;;;13.78;55.48
8039;BME280;4062;49.844;8.120;2023-04-06T11:09:52;99487.97;;;13.78;55.45
8039;BME280;4062;49.844;8.120;2023-04-06T11:11:54;99490.63;;;13.78;55.56
8039;BME280;4062;49.844;8.120;2023-04-06T11:13:59;99477.34;;;13.78;55.46
8039;BME280;4062;49.844;8.120;2023-04-06T11:16:01;99481.72;;;13.79;55.38
8039;BME280;4062;49.844;8.120;2023-04-06T11:18:05;99476.47;;;13.77;55.58
8039;BME280;4062;49.844;8.120;2023-04-06T11:20:10;99472.03;;;13.78;55.69